sensor_id;sensor_type;location;lat;lon;timestamp;P1;durP1;ratioP1;P2;durP2;ratioP2
19358;SDS011;9815;52.334;20.890;2022-12-11T00:01:06;51.50;;;18.07;;
19358;SDS011;9815;52.334;20.890;2022-12-11T00:03:35;52.57;;;18.30;;
19358;SDS011;9815;52.334;20.890;2022-12-11T00:06:05;52.30;;;17.83;;
19358;SDS011;9815;52.334;20.890;2022-12-11T00:08:34;54.03;;;18.57;;
19358;SDS011;9815;52.334;20.890;2022-12-11T00:11:04;49.97;;;17.53;;
19358;SDS011;9815;52.334;20.890;2022-12-11T00:13:34;52.37;;;16.60;;
19358;SDS011;9815;52.334;20.890;2022-12-11T00:16:02;49.57;;;17.73;;
19358;SDS011;9815;52.334;20.890;2022-12-11T00:18:30;47.00;;;17.73;;
19358;SDS011;9815;52.334;20.890;2022-12-11T00:20:58;50.37;;;18.47;;
19358;SDS011;9815;52.334;20.890;2022-12-11T00:23:27;62.80;;;17.83;;
19358;SDS011;9815;52.334;20.890;2022-12-11T00:25:55;50.93;;;18.10;;
19358;SDS011;9815;52.334;20.890;2022-12-11T00:28:25;49.37;;;17.10;;
19358;SDS011;9815;52.334;20.890;2022-12-11T00:30:53;42.73;;;15.67;;
19358;SDS011;9815;52.334;20.890;2022-12-11T00:33:21;51.90;;;18.17;;
19358;SDS011;9815;52.334;20.890;2022-12-11T00:35:49;50.67;;;17.27;;
19358;SDS011;9815;52.334;20.890;2022-12-11T00:38:18;55.87;;;18.17;;
19358;SDS011;9815;52.334;20.890;2022-12-11T00:40:47;50.07;;;16.83;;
19358;SDS011;9815;52.334;20.890;2022-12-11T00:43:15;42.70;;;16.57;;
19358;SDS011;9815;52.334;20.890;2022-12-11T00:45:45;47.80;;;16.20;;
19358;SDS011;9815;52.334;20.890;2022-12-11T00:48:14;49.00;;;16.73;;
19358;SDS011;9815;52.334;20.890;2022-12-11T00:50:42;45.67;;;16.77;;
19358;SDS011;9815;52.334;20.890;2022-12-11T00:53:10;45.40;;;16.67;;
19358;SDS011;9815;52.334;20.890;2022-12-11T00:55:38;54.40;;;17.13;;
19358;SDS011;9815;52.334;20.890;2022-12-11T00:58:08;45.20;;;16.80;;
19358;SDS011;9815;52.334;20.890;2022-12-11T01:00:37;45.17;;;16.47;;
19358;SDS011;9815;52.334;20.890;2022-12-11T01:03:06;46.47;;;16.37;;
19358;SDS011;9815;52.334;20.890;2022-12-11T01:05:35;52.70;;;17.77;;
19358;SDS011;9815;52.334;20.890;2022-12-11T01:08:03;43.20;;;16.17;;
19358;SDS011;9815;52.334;20.890;2022-12-11T01:10:31;43.30;;;14.83;;
19358;SDS011;9815;52.334;20.890;2022-12-11T01:12:59;39.83;;;14.90;;
19358;SDS011;9815;52.334;20.890;2022-12-11T01:15:30;44.67;;;15.27;;
19358;SDS011;9815;52.334;20.890;2022-12-11T01:18:08;40.07;;;14.60;;
19358;SDS011;9815;52.334;20.890;2022-12-11T01:20:37;43.67;;;14.60;;
19358;SDS011;9815;52.334;20.890;2022-12-11T01:23:06;37.23;;;13.83;;
19358;SDS011;9815;52.334;20.890;2022-12-11T01:25:34;47.83;;;15.63;;
19358;SDS011;9815;52.334;20.890;2022-12-11T01:28:04;40.23;;;14.77;;
19358;SDS011;9815;52.334;20.890;2022-12-11T01:30:32;42.00;;;14.53;;
19358;SDS011;9815;52.334;20.890;2022-12-11T01:33:01;40.53;;;14.70;;
19358;SDS011;9815;52.334;20.890;2022-12-11T01:35:30;44.47;;;16.00;;
19358;SDS011;9815;52.334;20.890;2022-12-11T01:37:59;37.23;;;13.93;;
19358;SDS011;9815;52.334;20.890;2022-12-11T01:40:28;41.77;;;14.67;;
19358;SDS011;9815;52.334;20.890;2022-12-11T01:42:56;38.27;;;13.33;;
19358;SDS011;9815;52.334;20.890;2022-12-11T01:45:35;37.27;;;14.13;;
19358;SDS011;9815;52.334;20.890;2022-12-11T01:48:07;34.10;;;13.40;;
19358;SDS011;9815;52.334;20.890;2022-12-11T01:50:40;34.47;;;13.33;;
19358;SDS011;9815;52.334;20.890;2022-12-11T01:53:12;33.23;;;13.20;;
19358;SDS011;9815;52.334;20.890;2022-12-11T01:55:44;36.57;;;14.47;;
19358;SDS011;9815;52.334;20.890;2022-12-11T01:58:13;42.07;;;14.47;;
19358;SDS011;9815;52.334;20.890;2022-12-11T02:00:42;38.50;;;14.43;;
19358;SDS011;9815;52.334;20.890;2022-12-11T02:03:10;42.90;;;15.67;;
19358;SDS011;9815;52.334;20.890;2022-12-11T02:05:40;43.60;;;15.10;;
19358;SDS011;9815;52.334;20.890;2022-12-11T02:08:08;42.77;;;15.57;;
19358;SDS011;9815;52.334;20.890;2022-12-11T02:10:42;49.77;;;15.77;;
19358;SDS011;9815;52.334;20.890;2022-12-11T02:13:16;47.87;;;15.63;;
19358;SDS011;9815;52.334;20.890;2022-12-11T02:15:50;46.97;;;17.03;;
19358;SDS011;9815;52.334;20.890;2022-12-11T02:18:28;46.00;;;16.70;;
19358;SDS011;9815;52.334;20.890;2022-12-11T02:21:04;45.63;;;16.50;;
19358;SDS011;9815;52.334;20.890;2022-12-11T02:26:30;48.80;;;17.43;;
19358;SDS011;9815;52.334;20.890;2022-12-11T02:29:17;47.70;;;17.50;;
19358;SDS011;9815;52.334;20.890;2022-12-11T02:31:49;52.27;;;19.17;;
19358;SDS011;9815;52.334;20.890;2022-12-11T02:34:24;51.03;;;18.53;;
19358;SDS011;9815;52.334;20.890;2022-12-11T02:36:57;57.17;;;19.43;;
19358;SDS011;9815;52.334;20.890;2022-12-11T02:39:28;53.97;;;17.97;;
19358;SDS011;9815;52.334;20.890;2022-12-11T02:41:58;56.80;;;19.60;;
19358;SDS011;9815;52.334;20.890;2022-12-11T02:44:29;63.63;;;20.53;;
19358;SDS011;9815;52.334;20.890;2022-12-11T02:47:00;55.43;;;19.03;;
19358;SDS011;9815;52.334;20.890;2022-12-11T02:49:30;64.90;;;19.63;;
19358;SDS011;9815;52.334;20.890;2022-12-11T02:52:00;54.27;;;19.27;;
19358;SDS011;9815;52.334;20.890;2022-12-11T02:54:31;60.33;;;19.13;;
19358;SDS011;9815;52.334;20.890;2022-12-11T02:57:05;59.73;;;19.03;;
19358;SDS011;9815;52.334;20.890;2022-12-11T02:59:37;52.80;;;17.87;;
19358;SDS011;9815;52.334;20.890;2022-12-11T03:02:07;58.17;;;18.60;;
19358;SDS011;9815;52.334;20.890;2022-12-11T03:04:37;58.63;;;19.17;;
19358;SDS011;9815;52.334;20.890;2022-12-11T03:07:06;53.67;;;19.07;;
19358;SDS011;9815;52.334;20.890;2022-12-11T03:09:38;53.13;;;18.20;;
19358;SDS011;9815;52.334;20.890;2022-12-11T03:12:06;58.50;;;18.87;;
19358;SDS011;9815;52.334;20.890;2022-12-11T03:14:37;52.27;;;18.87;;
19358;SDS011;9815;52.334;20.890;2022-12-11T03:17:07;55.93;;;19.20;;
19358;SDS011;9815;52.334;20.890;2022-12-11T03:19:40;57.73;;;18.40;;
19358;SDS011;9815;52.334;20.890;2022-12-11T03:22:15;53.17;;;16.87;;
19358;SDS011;9815;52.334;20.890;2022-12-11T03:24:46;49.57;;;16.60;;
19358;SDS011;9815;52.334;20.890;2022-12-11T03:27:18;53.53;;;17.53;;
19358;SDS011;9815;52.334;20.890;2022-12-11T03:29:56;46.67;;;16.70;;
19358;SDS011;9815;52.334;20.890;2022-12-11T03:32:28;45.93;;;15.30;;
19358;SDS011;9815;52.334;20.890;2022-12-11T03:35:01;47.97;;;17.03;;
19358;SDS011;9815;52.334;20.890;2022-12-11T03:37:34;44.27;;;15.93;;
19358;SDS011;9815;52.334;20.890;2022-12-11T03:40:05;45.97;;;16.57;;
19358;SDS011;9815;52.334;20.890;2022-12-11T03:42:37;47.73;;;16.57;;
19358;SDS011;9815;52.334;20.890;2022-12-11T03:45:08;46.07;;;16.10;;
19358;SDS011;9815;52.334;20.890;2022-12-11T03:47:38;40.63;;;15.57;;
19358;SDS011;9815;52.334;20.890;2022-12-11T03:50:09;50.33;;;17.07;;
19358;SDS011;9815;52.334;20.890;2022-12-11T03:52:39;42.63;;;17.30;;
19358;SDS011;9815;52.334;20.890;2022-12-11T03:55:11;45.23;;;16.77;;
19358;SDS011;9815;52.334;20.890;2022-12-11T03:57:41;51.17;;;16.87;;
19358;SDS011;9815;52.334;20.890;2022-12-11T04:00:12;54.27;;;19.03;;
19358;SDS011;9815;52.334;20.890;2022-12-11T04:02:42;55.87;;;20.20;;
19358;SDS011;9815;52.334;20.890;2022-12-11T04:05:38;55.77;;;18.93;;
19358;SDS011;9815;52.334;20.890;2022-12-11T04:08:07;54.87;;;19.77;;
19358;SDS011;9815;52.334;20.890;2022-12-11T04:10:35;59.20;;;19.77;;
19358;SDS011;9815;52.334;20.890;2022-12-11T04:13:03;51.60;;;17.93;;
19358;SDS011;9815;52.334;20.890;2022-12-11T04:15:33;57.10;;;18.60;;
19358;SDS011;9815;52.334;20.890;2022-12-11T04:18:00;50.90;;;18.90;;
19358;SDS011;9815;52.334;20.890;2022-12-11T04:20:46;50.80;;;19.10;;
19358;SDS011;9815;52.334;20.890;2022-12-11T04:23:31;57.97;;;18.43;;
19358;SDS011;9815;52.334;20.890;2022-12-11T04:26:17;62.57;;;19.10;;
19358;SDS011;9815;52.334;20.890;2022-12-11T04:28:47;53.60;;;18.17;;
19358;SDS011;9815;52.334;20.890;2022-12-11T04:31:18;59.00;;;19.23;;
19358;SDS011;9815;52.334;20.890;2022-12-11T04:33:47;56.27;;;19.03;;
19358;SDS011;9815;52.334;20.890;2022-12-11T04:36:16;59.43;;;18.67;;
19358;SDS011;9815;52.334;20.890;2022-12-11T04:38:44;54.63;;;20.33;;
19358;SDS011;9815;52.334;20.890;2022-12-11T04:41:13;51.87;;;18.80;;
19358;SDS011;9815;52.334;20.890;2022-12-11T04:43:41;58.13;;;21.20;;
19358;SDS011;9815;52.334;20.890;2022-12-11T04:46:11;54.30;;;19.13;;
19358;SDS011;9815;52.334;20.890;2022-12-11T04:48:42;50.43;;;17.30;;
19358;SDS011;9815;52.334;20.890;2022-12-11T04:51:10;50.90;;;18.30;;
19358;SDS011;9815;52.334;20.890;2022-12-11T04:53:39;48.27;;;18.20;;
19358;SDS011;9815;52.334;20.890;2022-12-11T04:56:09;46.57;;;19.10;;
19358;SDS011;9815;52.334;20.890;2022-12-11T04:58:40;53.03;;;17.57;;
19358;SDS011;9815;52.334;20.890;2022-12-11T05:01:09;43.93;;;17.20;;
19358;SDS011;9815;52.334;20.890;2022-12-11T05:03:41;51.20;;;18.07;;
19358;SDS011;9815;52.334;20.890;2022-12-11T05:06:10;47.93;;;17.00;;
19358;SDS011;9815;52.334;20.890;2022-12-11T05:08:39;45.07;;;18.23;;
19358;SDS011;9815;52.334;20.890;2022-12-11T05:11:08;60.60;;;18.67;;
19358;SDS011;9815;52.334;20.890;2022-12-11T05:13:38;55.60;;;19.37;;
19358;SDS011;9815;52.334;20.890;2022-12-11T05:16:06;62.67;;;18.53;;
19358;SDS011;9815;52.334;20.890;2022-12-11T05:18:36;57.47;;;18.27;;
19358;SDS011;9815;52.334;20.890;2022-12-11T05:21:06;62.10;;;19.30;;
19358;SDS011;9815;52.334;20.890;2022-12-11T05:23:36;80.10;;;26.23;;
19358;SDS011;9815;52.334;20.890;2022-12-11T05:26:05;69.97;;;23.70;;
19358;SDS011;9815;52.334;20.890;2022-12-11T05:28:37;69.27;;;24.57;;
19358;SDS011;9815;52.334;20.890;2022-12-11T05:31:06;74.80;;;25.13;;
19358;SDS011;9815;52.334;20.890;2022-12-11T05:33:38;63.60;;;24.07;;
19358;SDS011;9815;52.334;20.890;2022-12-11T05:36:08;54.63;;;19.67;;
19358;SDS011;9815;52.334;20.890;2022-12-11T05:38:42;49.63;;;18.67;;
19358;SDS011;9815;52.334;20.890;2022-12-11T05:41:11;47.43;;;18.87;;
19358;SDS011;9815;52.334;20.890;2022-12-11T05:43:40;52.17;;;18.67;;
19358;SDS011;9815;52.334;20.890;2022-12-11T05:46:09;62.13;;;22.00;;
19358;SDS011;9815;52.334;20.890;2022-12-11T05:48:40;54.33;;;20.37;;
19358;SDS011;9815;52.334;20.890;2022-12-11T05:51:10;49.70;;;18.67;;
19358;SDS011;9815;52.334;20.890;2022-12-11T05:53:39;43.23;;;17.10;;
19358;SDS011;9815;52.334;20.890;2022-12-11T05:56:09;44.27;;;16.87;;
19358;SDS011;9815;52.334;20.890;2022-12-11T05:58:39;44.00;;;17.20;;
19358;SDS011;9815;52.334;20.890;2022-12-11T06:01:08;49.40;;;17.53;;
19358;SDS011;9815;52.334;20.890;2022-12-11T06:03:38;40.57;;;15.67;;
19358;SDS011;9815;52.334;20.890;2022-12-11T06:06:06;40.07;;;15.83;;
19358;SDS011;9815;52.334;20.890;2022-12-11T06:08:35;46.27;;;16.80;;
19358;SDS011;9815;52.334;20.890;2022-12-11T06:11:04;40.37;;;16.83;;
19358;SDS011;9815;52.334;20.890;2022-12-11T06:13:33;38.53;;;15.90;;
19358;SDS011;9815;52.334;20.890;2022-12-11T06:16:01;44.10;;;16.80;;
19358;SDS011;9815;52.334;20.890;2022-12-11T06:18:31;39.67;;;16.63;;
19358;SDS011;9815;52.334;20.890;2022-12-11T06:21:01;51.17;;;19.77;;
19358;SDS011;9815;52.334;20.890;2022-12-11T06:23:39;52.40;;;18.57;;
19358;SDS011;9815;52.334;20.890;2022-12-11T06:26:07;48.87;;;17.97;;
19358;SDS011;9815;52.334;20.890;2022-12-11T06:28:36;52.97;;;17.27;;
19358;SDS011;9815;52.334;20.890;2022-12-11T06:31:04;36.73;;;14.93;;
19358;SDS011;9815;52.334;20.890;2022-12-11T06:33:33;39.43;;;15.73;;
19358;SDS011;9815;52.334;20.890;2022-12-11T06:36:01;43.87;;;14.83;;
19358;SDS011;9815;52.334;20.890;2022-12-11T06:38:30;39.10;;;14.57;;
19358;SDS011;9815;52.334;20.890;2022-12-11T06:41:00;30.57;;;12.70;;
19358;SDS011;9815;52.334;20.890;2022-12-11T06:43:30;37.57;;;15.37;;
19358;SDS011;9815;52.334;20.890;2022-12-11T06:45:58;33.90;;;14.23;;
19358;SDS011;9815;52.334;20.890;2022-12-11T06:48:29;40.77;;;14.97;;
19358;SDS011;9815;52.334;20.890;2022-12-11T06:50:58;37.43;;;15.13;;
19358;SDS011;9815;52.334;20.890;2022-12-11T06:53:26;41.30;;;14.73;;
19358;SDS011;9815;52.334;20.890;2022-12-11T06:55:54;35.23;;;13.90;;
19358;SDS011;9815;52.334;20.890;2022-12-11T06:58:23;39.97;;;16.43;;
19358;SDS011;9815;52.334;20.890;2022-12-11T07:00:51;45.07;;;15.87;;
19358;SDS011;9815;52.334;20.890;2022-12-11T07:03:20;41.70;;;17.37;;
19358;SDS011;9815;52.334;20.890;2022-12-11T07:05:48;46.57;;;16.87;;
19358;SDS011;9815;52.334;20.890;2022-12-11T07:08:16;37.40;;;14.23;;
19358;SDS011;9815;52.334;20.890;2022-12-11T07:10:44;38.03;;;15.00;;
19358;SDS011;9815;52.334;20.890;2022-12-11T07:13:12;33.30;;;12.93;;
19358;SDS011;9815;52.334;20.890;2022-12-11T07:15:42;35.03;;;13.63;;
19358;SDS011;9815;52.334;20.890;2022-12-11T07:18:10;29.40;;;13.10;;
19358;SDS011;9815;52.334;20.890;2022-12-11T07:20:38;36.10;;;13.77;;
19358;SDS011;9815;52.334;20.890;2022-12-11T07:23:06;37.20;;;14.03;;
19358;SDS011;9815;52.334;20.890;2022-12-11T07:25:35;36.50;;;14.00;;
19358;SDS011;9815;52.334;20.890;2022-12-11T07:28:03;34.00;;;13.13;;
19358;SDS011;9815;52.334;20.890;2022-12-11T07:30:31;36.47;;;12.93;;
19358;SDS011;9815;52.334;20.890;2022-12-11T07:33:00;35.53;;;13.77;;
19358;SDS011;9815;52.334;20.890;2022-12-11T07:35:28;34.90;;;13.77;;
19358;SDS011;9815;52.334;20.890;2022-12-11T07:37:56;40.10;;;14.53;;
19358;SDS011;9815;52.334;20.890;2022-12-11T07:40:25;35.23;;;13.50;;
19358;SDS011;9815;52.334;20.890;2022-12-11T07:42:53;26.63;;;11.63;;
19358;SDS011;9815;52.334;20.890;2022-12-11T07:45:22;34.20;;;13.13;;
19358;SDS011;9815;52.334;20.890;2022-12-11T07:47:51;33.87;;;13.53;;
19358;SDS011;9815;52.334;20.890;2022-12-11T07:50:21;40.47;;;14.30;;
19358;SDS011;9815;52.334;20.890;2022-12-11T07:52:49;38.30;;;15.23;;
19358;SDS011;9815;52.334;20.890;2022-12-11T07:55:17;34.80;;;13.47;;
19358;SDS011;9815;52.334;20.890;2022-12-11T07:57:45;34.17;;;12.47;;
19358;SDS011;9815;52.334;20.890;2022-12-11T08:00:13;32.10;;;13.07;;
19358;SDS011;9815;52.334;20.890;2022-12-11T08:02:42;32.03;;;12.27;;
19358;SDS011;9815;52.334;20.890;2022-12-11T08:05:10;30.87;;;12.53;;
19358;SDS011;9815;52.334;20.890;2022-12-11T08:07:40;30.33;;;12.70;;
19358;SDS011;9815;52.334;20.890;2022-12-11T08:10:08;27.80;;;11.83;;
19358;SDS011;9815;52.334;20.890;2022-12-11T08:12:36;29.43;;;12.30;;
19358;SDS011;9815;52.334;20.890;2022-12-11T08:15:05;34.97;;;13.03;;
19358;SDS011;9815;52.334;20.890;2022-12-11T08:17:34;31.27;;;12.43;;
19358;SDS011;9815;52.334;20.890;2022-12-11T08:20:05;35.57;;;12.23;;
19358;SDS011;9815;52.334;20.890;2022-12-11T08:22:34;33.40;;;13.70;;
19358;SDS011;9815;52.334;20.890;2022-12-11T08:25:04;36.30;;;13.90;;
19358;SDS011;9815;52.334;20.890;2022-12-11T08:27:33;28.17;;;12.63;;
19358;SDS011;9815;52.334;20.890;2022-12-11T08:30:02;36.17;;;13.47;;
19358;SDS011;9815;52.334;20.890;2022-12-11T08:32:31;30.10;;;11.93;;
19358;SDS011;9815;52.334;20.890;2022-12-11T08:35:00;33.90;;;12.33;;
19358;SDS011;9815;52.334;20.890;2022-12-11T08:37:28;31.47;;;13.00;;
19358;SDS011;9815;52.334;20.890;2022-12-11T08:39:56;31.90;;;12.67;;
19358;SDS011;9815;52.334;20.890;2022-12-11T08:42:26;27.73;;;11.70;;
19358;SDS011;9815;52.334;20.890;2022-12-11T08:44:54;23.13;;;10.73;;
19358;SDS011;9815;52.334;20.890;2022-12-11T08:47:23;33.40;;;13.10;;
19358;SDS011;9815;52.334;20.890;2022-12-11T08:49:51;29.17;;;12.53;;
19358;SDS011;9815;52.334;20.890;2022-12-11T08:52:20;29.70;;;10.83;;
19358;SDS011;9815;52.334;20.890;2022-12-11T08:54:48;29.60;;;11.23;;
19358;SDS011;9815;52.334;20.890;2022-12-11T08:57:16;30.80;;;11.50;;
19358;SDS011;9815;52.334;20.890;2022-12-11T08:59:45;29.07;;;11.67;;
19358;SDS011;9815;52.334;20.890;2022-12-11T09:02:14;28.00;;;11.37;;
19358;SDS011;9815;52.334;20.890;2022-12-11T09:04:42;26.80;;;12.40;;
19358;SDS011;9815;52.334;20.890;2022-12-11T09:07:10;29.73;;;12.20;;
19358;SDS011;9815;52.334;20.890;2022-12-11T09:09:38;30.27;;;12.53;;
19358;SDS011;9815;52.334;20.890;2022-12-11T09:12:06;31.40;;;12.13;;
19358;SDS011;9815;52.334;20.890;2022-12-11T09:14:35;24.27;;;11.60;;
19358;SDS011;9815;52.334;20.890;2022-12-11T09:17:04;28.33;;;10.93;;
19358;SDS011;9815;52.334;20.890;2022-12-11T09:19:32;34.17;;;12.50;;
19358;SDS011;9815;52.334;20.890;2022-12-11T09:22:00;27.40;;;12.33;;
19358;SDS011;9815;52.334;20.890;2022-12-11T09:24:29;27.37;;;11.60;;
19358;SDS011;9815;52.334;20.890;2022-12-11T09:26:57;29.53;;;12.07;;
19358;SDS011;9815;52.334;20.890;2022-12-11T09:29:25;32.70;;;12.57;;
19358;SDS011;9815;52.334;20.890;2022-12-11T09:31:53;33.20;;;13.83;;
19358;SDS011;9815;52.334;20.890;2022-12-11T09:34:22;32.20;;;12.97;;
19358;SDS011;9815;52.334;20.890;2022-12-11T09:36:55;24.67;;;12.13;;
19358;SDS011;9815;52.334;20.890;2022-12-11T09:39:23;22.30;;;10.47;;
19358;SDS011;9815;52.334;20.890;2022-12-11T09:41:52;29.07;;;11.40;;
19358;SDS011;9815;52.334;20.890;2022-12-11T09:44:30;32.57;;;13.13;;
19358;SDS011;9815;52.334;20.890;2022-12-11T09:47:01;31.30;;;13.47;;
19358;SDS011;9815;52.334;20.890;2022-12-11T09:49:34;31.63;;;13.10;;
19358;SDS011;9815;52.334;20.890;2022-12-11T09:52:11;27.37;;;11.87;;
19358;SDS011;9815;52.334;20.890;2022-12-11T09:54:47;32.90;;;12.53;;
19358;SDS011;9815;52.334;20.890;2022-12-11T09:57:19;29.70;;;12.50;;
19358;SDS011;9815;52.334;20.890;2022-12-11T10:00:03;30.73;;;12.00;;
19358;SDS011;9815;52.334;20.890;2022-12-11T10:02:39;32.37;;;12.17;;
19358;SDS011;9815;52.334;20.890;2022-12-11T10:05:20;28.63;;;12.43;;
19358;SDS011;9815;52.334;20.890;2022-12-11T10:07:55;33.93;;;13.33;;
19358;SDS011;9815;52.334;20.890;2022-12-11T10:10:32;27.37;;;11.80;;
19358;SDS011;9815;52.334;20.890;2022-12-11T10:13:10;28.67;;;12.80;;
19358;SDS011;9815;52.334;20.890;2022-12-11T10:15:49;26.37;;;11.53;;
19358;SDS011;9815;52.334;20.890;2022-12-11T10:18:21;32.00;;;12.57;;
19358;SDS011;9815;52.334;20.890;2022-12-11T10:20:52;34.27;;;12.37;;
19358;SDS011;9815;52.334;20.890;2022-12-11T10:23:23;36.67;;;14.53;;
19358;SDS011;9815;52.334;20.890;2022-12-11T10:26:02;31.97;;;12.97;;
19358;SDS011;9815;52.334;20.890;2022-12-11T10:28:32;32.73;;;12.67;;
19358;SDS011;9815;52.334;20.890;2022-12-11T10:31:03;28.10;;;10.77;;
19358;SDS011;9815;52.334;20.890;2022-12-11T10:33:39;24.63;;;10.80;;
19358;SDS011;9815;52.334;20.890;2022-12-11T10:36:17;23.70;;;10.57;;
19358;SDS011;9815;52.334;20.890;2022-12-11T10:38:51;27.63;;;11.13;;
19358;SDS011;9815;52.334;20.890;2022-12-11T10:41:20;31.57;;;12.00;;
19358;SDS011;9815;52.334;20.890;2022-12-11T10:43:51;24.97;;;10.83;;
19358;SDS011;9815;52.334;20.890;2022-12-11T10:46:21;28.20;;;11.90;;
19358;SDS011;9815;52.334;20.890;2022-12-11T10:48:52;27.97;;;12.03;;
19358;SDS011;9815;52.334;20.890;2022-12-11T10:51:24;26.97;;;11.77;;
19358;SDS011;9815;52.334;20.890;2022-12-11T10:54:00;34.73;;;13.93;;
19358;SDS011;9815;52.334;20.890;2022-12-11T10:56:33;36.90;;;13.83;;
19358;SDS011;9815;52.334;20.890;2022-12-11T10:59:03;34.43;;;14.03;;
19358;SDS011;9815;52.334;20.890;2022-12-11T11:01:32;29.43;;;12.70;;
19358;SDS011;9815;52.334;20.890;2022-12-11T11:04:02;28.53;;;12.23;;
19358;SDS011;9815;52.334;20.890;2022-12-11T11:06:34;32.17;;;13.23;;
19358;SDS011;9815;52.334;20.890;2022-12-11T11:09:03;30.43;;;13.10;;
19358;SDS011;9815;52.334;20.890;2022-12-11T11:11:32;30.90;;;12.37;;
19358;SDS011;9815;52.334;20.890;2022-12-11T11:14:05;30.23;;;12.83;;
19358;SDS011;9815;52.334;20.890;2022-12-11T11:16:39;32.27;;;13.23;;
19358;SDS011;9815;52.334;20.890;2022-12-11T11:19:13;30.47;;;12.50;;
19358;SDS011;9815;52.334;20.890;2022-12-11T11:21:49;33.23;;;13.43;;
19358;SDS011;9815;52.334;20.890;2022-12-11T11:24:23;31.53;;;13.37;;
19358;SDS011;9815;52.334;20.890;2022-12-11T11:26:55;34.27;;;14.07;;
19358;SDS011;9815;52.334;20.890;2022-12-11T11:29:40;26.37;;;11.27;;
19358;SDS011;9815;52.334;20.890;2022-12-11T11:32:14;27.87;;;11.70;;
19358;SDS011;9815;52.334;20.890;2022-12-11T11:34:46;34.63;;;13.67;;
19358;SDS011;9815;52.334;20.890;2022-12-11T11:37:25;31.90;;;12.53;;
19358;SDS011;9815;52.334;20.890;2022-12-11T11:40:00;30.43;;;12.83;;
19358;SDS011;9815;52.334;20.890;2022-12-11T11:42:36;27.83;;;11.90;;
19358;SDS011;9815;52.334;20.890;2022-12-11T11:45:11;28.67;;;11.70;;
19358;SDS011;9815;52.334;20.890;2022-12-11T11:47:47;28.30;;;11.60;;
19358;SDS011;9815;52.334;20.890;2022-12-11T11:50:24;34.20;;;13.73;;
19358;SDS011;9815;52.334;20.890;2022-12-11T11:52:56;30.40;;;14.40;;
19358;SDS011;9815;52.334;20.890;2022-12-11T11:55:34;36.83;;;14.73;;
19358;SDS011;9815;52.334;20.890;2022-12-11T11:58:11;35.27;;;14.43;;
19358;SDS011;9815;52.334;20.890;2022-12-11T12:00:43;32.90;;;14.37;;
19358;SDS011;9815;52.334;20.890;2022-12-11T12:03:12;28.07;;;12.63;;
19358;SDS011;9815;52.334;20.890;2022-12-11T12:05:44;33.13;;;13.53;;
19358;SDS011;9815;52.334;20.890;2022-12-11T12:08:21;27.97;;;12.83;;
19358;SDS011;9815;52.334;20.890;2022-12-11T12:11:02;29.90;;;12.93;;
19358;SDS011;9815;52.334;20.890;2022-12-11T12:13:36;27.50;;;11.40;;
19358;SDS011;9815;52.334;20.890;2022-12-11T12:16:16;27.93;;;11.37;;
19358;SDS011;9815;52.334;20.890;2022-12-11T12:19:16;27.53;;;10.90;;
19358;SDS011;9815;52.334;20.890;2022-12-11T12:21:53;27.30;;;11.03;;
19358;SDS011;9815;52.334;20.890;2022-12-11T12:24:26;29.17;;;12.53;;
19358;SDS011;9815;52.334;20.890;2022-12-11T12:27:07;26.00;;;10.73;;
19358;SDS011;9815;52.334;20.890;2022-12-11T12:30:02;24.13;;;10.97;;
19358;SDS011;9815;52.334;20.890;2022-12-11T12:32:35;24.83;;;11.70;;
19358;SDS011;9815;52.334;20.890;2022-12-11T12:35:15;29.13;;;12.23;;
19358;SDS011;9815;52.334;20.890;2022-12-11T12:37:54;23.93;;;12.47;;
19358;SDS011;9815;52.334;20.890;2022-12-11T12:40:28;25.43;;;12.83;;
19358;SDS011;9815;52.334;20.890;2022-12-11T12:43:05;30.40;;;12.93;;
19358;SDS011;9815;52.334;20.890;2022-12-11T12:45:58;30.40;;;12.47;;
19358;SDS011;9815;52.334;20.890;2022-12-11T12:48:37;34.43;;;14.80;;
19358;SDS011;9815;52.334;20.890;2022-12-11T12:51:05;40.60;;;16.17;;
19358;SDS011;9815;52.334;20.890;2022-12-11T12:53:39;30.47;;;13.50;;
19358;SDS011;9815;52.334;20.890;2022-12-11T12:56:12;26.80;;;12.67;;
19358;SDS011;9815;52.334;20.890;2022-12-11T12:58:42;29.33;;;13.03;;
19358;SDS011;9815;52.334;20.890;2022-12-11T13:01:14;30.07;;;12.67;;
19358;SDS011;9815;52.334;20.890;2022-12-11T13:03:48;30.43;;;14.00;;
19358;SDS011;9815;52.334;20.890;2022-12-11T13:06:29;29.87;;;12.90;;
19358;SDS011;9815;52.334;20.890;2022-12-11T13:09:14;28.70;;;11.93;;
19358;SDS011;9815;52.334;20.890;2022-12-11T13:11:45;25.57;;;11.87;;
19358;SDS011;9815;52.334;20.890;2022-12-11T13:14:23;28.80;;;12.90;;
19358;SDS011;9815;52.334;20.890;2022-12-11T13:17:06;28.40;;;12.40;;
19358;SDS011;9815;52.334;20.890;2022-12-11T13:20:05;27.93;;;13.30;;
19358;SDS011;9815;52.334;20.890;2022-12-11T13:22:49;29.67;;;12.23;;
19358;SDS011;9815;52.334;20.890;2022-12-11T13:25:44;26.20;;;11.90;;
19358;SDS011;9815;52.334;20.890;2022-12-11T13:28:20;22.80;;;11.37;;
19358;SDS011;9815;52.334;20.890;2022-12-11T13:34:12;27.60;;;13.13;;
19358;SDS011;9815;52.334;20.890;2022-12-11T13:36:46;23.37;;;11.77;;
19358;SDS011;9815;52.334;20.890;2022-12-11T13:39:17;25.30;;;12.17;;
19358;SDS011;9815;52.334;20.890;2022-12-11T13:41:49;22.30;;;11.43;;
19358;SDS011;9815;52.334;20.890;2022-12-11T13:44:22;22.77;;;11.83;;
19358;SDS011;9815;52.334;20.890;2022-12-11T13:46:53;21.77;;;10.60;;
19358;SDS011;9815;52.334;20.890;2022-12-11T13:49:25;23.53;;;11.17;;
19358;SDS011;9815;52.334;20.890;2022-12-11T13:51:57;22.73;;;11.57;;
19358;SDS011;9815;52.334;20.890;2022-12-11T13:54:27;21.10;;;10.93;;
19358;SDS011;9815;52.334;20.890;2022-12-11T13:56:58;24.30;;;11.27;;
19358;SDS011;9815;52.334;20.890;2022-12-11T13:59:31;22.27;;;11.33;;
19358;SDS011;9815;52.334;20.890;2022-12-11T14:02:06;22.30;;;10.67;;
19358;SDS011;9815;52.334;20.890;2022-12-11T14:04:41;21.73;;;11.20;;
19358;SDS011;9815;52.334;20.890;2022-12-11T14:07:10;23.47;;;11.77;;
19358;SDS011;9815;52.334;20.890;2022-12-11T14:09:41;21.23;;;10.20;;
19358;SDS011;9815;52.334;20.890;2022-12-11T14:12:17;22.80;;;10.57;;
19358;SDS011;9815;52.334;20.890;2022-12-11T14:14:49;24.53;;;11.03;;
19358;SDS011;9815;52.334;20.890;2022-12-11T14:17:21;23.20;;;11.53;;
19358;SDS011;9815;52.334;20.890;2022-12-11T14:19:53;27.50;;;12.87;;
19358;SDS011;9815;52.334;20.890;2022-12-11T14:22:24;29.33;;;12.70;;
19358;SDS011;9815;52.334;20.890;2022-12-11T14:24:54;24.63;;;12.03;;
19358;SDS011;9815;52.334;20.890;2022-12-11T14:27:24;30.47;;;13.47;;
19358;SDS011;9815;52.334;20.890;2022-12-11T14:29:55;25.47;;;12.83;;
19358;SDS011;9815;52.334;20.890;2022-12-11T14:32:25;25.40;;;12.63;;
19358;SDS011;9815;52.334;20.890;2022-12-11T14:34:57;26.53;;;10.97;;
19358;SDS011;9815;52.334;20.890;2022-12-11T14:37:28;25.77;;;12.07;;
19358;SDS011;9815;52.334;20.890;2022-12-11T14:39:57;24.30;;;11.87;;
19358;SDS011;9815;52.334;20.890;2022-12-11T14:42:28;22.60;;;10.87;;
19358;SDS011;9815;52.334;20.890;2022-12-11T14:45:02;28.93;;;11.37;;
19358;SDS011;9815;52.334;20.890;2022-12-11T14:47:36;24.53;;;10.63;;
19358;SDS011;9815;52.334;20.890;2022-12-11T14:50:07;24.57;;;10.80;;
19358;SDS011;9815;52.334;20.890;2022-12-11T14:52:43;26.93;;;10.83;;